sensor_id;sensor_type;location;lat;lon;timestamp;P1;durP1;ratioP1;P2;durP2;ratioP2
53751;SDS011;41095;53.090;6.692;2023-05-07T00:00:00;24.48;;;17.42;;
53751;SDS011;41095;53.090;6.692;2023-05-07T00:02:26;24.10;;;17.58;;
53751;SDS011;41095;53.090;6.692;2023-05-07T00:04:51;24.58;;;18.55;;
53751;SDS011;41095;53.090;6.692;2023-05-07T00:07:17;21.55;;;17.65;;
53751;SDS011;41095;53.090;6.692;2023-05-07T00:09:43;27.67;;;18.58;;
53751;SDS011;41095;53.090;6.692;2023-05-07T00:12:09;25.20;;;18.50;;
53751;SDS011;41095;53.090;6.692;2023-05-07T00:14:35;25.40;;;18.42;;
53751;SDS011;41095;53.090;6.692;2023-05-07T00:17:00;24.63;;;19.52;;
53751;SDS011;41095;53.090;6.692;2023-05-07T00:19:26;24.85;;;20.13;;
53751;SDS011;41095;53.090;6.692;2023-05-07T00:21:52;28.90;;;19.83;;
53751;SDS011;41095;53.090;6.692;2023-05-07T00:24:21;24.65;;;20.00;;
53751;SDS011;41095;53.090;6.692;2023-05-07T00:26:47;25.95;;;19.95;;
53751;SDS011;41095;53.090;6.692;2023-05-07T00:29:13;25.75;;;21.58;;
53751;SDS011;41095;53.090;6.692;2023-05-07T00:31:38;30.55;;;22.30;;
53751;SDS011;41095;53.090;6.692;2023-05-07T00:34:04;28.38;;;21.73;;
53751;SDS011;41095;53.090;6.692;2023-05-07T00:36:30;29.23;;;21.73;;
53751;SDS011;41095;53.090;6.692;2023-05-07T00:38:57;31.10;;;21.33;;
53751;SDS011;41095;53.090;6.692;2023-05-07T00:41:25;27.48;;;21.70;;
53751;SDS011;41095;53.090;6.692;2023-05-07T00:43:51;25.58;;;20.73;;
53751;SDS011;41095;53.090;6.692;2023-05-07T00:46:18;30.38;;;22.60;;
53751;SDS011;41095;53.090;6.692;2023-05-07T00:48:46;28.88;;;22.23;;
53751;SDS011;41095;53.090;6.692;2023-05-07T00:51:12;25.70;;;21.30;;
53751;SDS011;41095;53.090;6.692;2023-05-07T00:53:38;32.30;;;22.13;;
53751;SDS011;41095;53.090;6.692;2023-05-07T00:56:04;25.58;;;21.58;;
53751;SDS011;41095;53.090;6.692;2023-05-07T00:58:31;30.13;;;22.15;;
53751;SDS011;41095;53.090;6.692;2023-05-07T01:00:58;28.85;;;24.15;;
53751;SDS011;41095;53.090;6.692;2023-05-07T01:03:24;28.35;;;23.60;;
53751;SDS011;41095;53.090;6.692;2023-05-07T01:05:50;30.75;;;22.70;;
53751;SDS011;41095;53.090;6.692;2023-05-07T01:08:18;31.63;;;24.67;;
53751;SDS011;41095;53.090;6.692;2023-05-07T01:10:45;32.38;;;24.85;;
53751;SDS011;41095;53.090;6.692;2023-05-07T01:13:12;32.22;;;25.88;;
53751;SDS011;41095;53.090;6.692;2023-05-07T01:15:38;30.92;;;22.17;;
53751;SDS011;41095;53.090;6.692;2023-05-07T01:18:06;30.50;;;24.75;;
53751;SDS011;41095;53.090;6.692;2023-05-07T01:20:32;32.13;;;24.98;;
53751;SDS011;41095;53.090;6.692;2023-05-07T01:22:58;31.95;;;25.02;;
53751;SDS011;41095;53.090;6.692;2023-05-07T01:25:25;32.38;;;26.13;;
53751;SDS011;41095;53.090;6.692;2023-05-07T01:27:51;33.20;;;25.30;;
53751;SDS011;41095;53.090;6.692;2023-05-07T01:30:17;31.23;;;23.15;;
53751;SDS011;41095;53.090;6.692;2023-05-07T01:32:49;34.05;;;25.80;;
53751;SDS011;41095;53.090;6.692;2023-05-07T01:35:19;34.83;;;25.58;;
53751;SDS011;41095;53.090;6.692;2023-05-07T01:37:47;33.13;;;25.50;;
53751;SDS011;41095;53.090;6.692;2023-05-07T01:40:13;38.63;;;27.77;;
53751;SDS011;41095;53.090;6.692;2023-05-07T01:42:39;36.08;;;27.48;;
53751;SDS011;41095;53.090;6.692;2023-05-07T01:45:08;36.35;;;27.65;;
53751;SDS011;41095;53.090;6.692;2023-05-07T01:47:34;39.08;;;27.85;;
53751;SDS011;41095;53.090;6.692;2023-05-07T01:50:01;33.53;;;25.92;;
53751;SDS011;41095;53.090;6.692;2023-05-07T01:52:27;36.10;;;26.95;;
53751;SDS011;41095;53.090;6.692;2023-05-07T01:54:53;40.15;;;29.83;;
53751;SDS011;41095;53.090;6.692;2023-05-07T01:57:19;39.05;;;28.15;;
53751;SDS011;41095;53.090;6.692;2023-05-07T01:59:45;33.95;;;27.60;;
53751;SDS011;41095;53.090;6.692;2023-05-07T02:02:11;36.88;;;28.08;;
53751;SDS011;41095;53.090;6.692;2023-05-07T02:04:37;38.63;;;29.55;;
53751;SDS011;41095;53.090;6.692;2023-05-07T02:07:02;36.47;;;29.70;;
53751;SDS011;41095;53.090;6.692;2023-05-07T02:09:28;42.28;;;32.30;;
53751;SDS011;41095;53.090;6.692;2023-05-07T02:11:54;38.10;;;27.58;;
53751;SDS011;41095;53.090;6.692;2023-05-07T02:14:19;41.20;;;30.45;;
53751;SDS011;41095;53.090;6.692;2023-05-07T02:16:45;39.13;;;30.38;;
53751;SDS011;41095;53.090;6.692;2023-05-07T02:19:11;39.50;;;29.10;;
53751;SDS011;41095;53.090;6.692;2023-05-07T02:21:36;38.78;;;28.60;;
53751;SDS011;41095;53.090;6.692;2023-05-07T02:24:02;40.60;;;29.05;;
53751;SDS011;41095;53.090;6.692;2023-05-07T02:26:28;39.67;;;30.45;;
53751;SDS011;41095;53.090;6.692;2023-05-07T02:28:54;42.72;;;30.15;;
53751;SDS011;41095;53.090;6.692;2023-05-07T02:31:19;48.40;;;30.33;;
53751;SDS011;41095;53.090;6.692;2023-05-07T02:33:45;40.28;;;29.60;;
53751;SDS011;41095;53.090;6.692;2023-05-07T02:36:11;39.70;;;28.85;;
53751;SDS011;41095;53.090;6.692;2023-05-07T02:38:37;43.50;;;28.90;;
53751;SDS011;41095;53.090;6.692;2023-05-07T02:41:03;41.67;;;29.98;;
53751;SDS011;41095;53.090;6.692;2023-05-07T02:43:28;45.78;;;31.15;;
53751;SDS011;41095;53.090;6.692;2023-05-07T02:46:04;45.90;;;33.30;;
53751;SDS011;41095;53.090;6.692;2023-05-07T02:48:31;41.17;;;30.08;;
53751;SDS011;41095;53.090;6.692;2023-05-07T02:50:57;44.95;;;32.80;;
53751;SDS011;41095;53.090;6.692;2023-05-07T02:53:24;45.38;;;31.15;;
53751;SDS011;41095;53.090;6.692;2023-05-07T02:55:55;45.28;;;31.92;;
53751;SDS011;41095;53.090;6.692;2023-05-07T02:58:22;43.28;;;30.35;;
53751;SDS011;41095;53.090;6.692;2023-05-07T03:00:48;48.53;;;32.60;;
53751;SDS011;41095;53.090;6.692;2023-05-07T03:03:14;45.28;;;31.77;;
53751;SDS011;41095;53.090;6.692;2023-05-07T03:05:40;48.95;;;32.17;;
53751;SDS011;41095;53.090;6.692;2023-05-07T03:08:06;46.80;;;32.92;;
53751;SDS011;41095;53.090;6.692;2023-05-07T03:10:32;45.67;;;34.50;;
53751;SDS011;41095;53.090;6.692;2023-05-07T03:12:58;51.38;;;33.22;;
53751;SDS011;41095;53.090;6.692;2023-05-07T03:15:24;45.70;;;34.65;;
53751;SDS011;41095;53.090;6.692;2023-05-07T03:17:50;47.85;;;31.63;;
53751;SDS011;41095;53.090;6.692;2023-05-07T03:20:16;47.17;;;32.92;;
53751;SDS011;41095;53.090;6.692;2023-05-07T03:22:41;47.50;;;33.10;;
53751;SDS011;41095;53.090;6.692;2023-05-07T03:25:08;45.08;;;31.73;;
53751;SDS011;41095;53.090;6.692;2023-05-07T03:27:34;45.15;;;32.67;;
53751;SDS011;41095;53.090;6.692;2023-05-07T03:29:59;48.72;;;33.90;;
53751;SDS011;41095;53.090;6.692;2023-05-07T03:32:25;49.35;;;32.00;;
53751;SDS011;41095;53.090;6.692;2023-05-07T03:34:51;50.88;;;35.28;;
53751;SDS011;41095;53.090;6.692;2023-05-07T03:37:17;49.40;;;34.63;;
53751;SDS011;41095;53.090;6.692;2023-05-07T03:39:43;44.55;;;32.03;;
53751;SDS011;41095;53.090;6.692;2023-05-07T03:42:09;50.83;;;33.95;;
53751;SDS011;41095;53.090;6.692;2023-05-07T03:44:34;46.30;;;33.53;;
53751;SDS011;41095;53.090;6.692;2023-05-07T03:47:01;46.22;;;32.28;;
53751;SDS011;41095;53.090;6.692;2023-05-07T03:49:27;42.47;;;33.42;;
53751;SDS011;41095;53.090;6.692;2023-05-07T03:51:53;46.90;;;32.90;;
53751;SDS011;41095;53.090;6.692;2023-05-07T03:54:19;45.20;;;32.28;;
53751;SDS011;41095;53.090;6.692;2023-05-07T03:56:44;48.63;;;31.98;;
53751;SDS011;41095;53.090;6.692;2023-05-07T03:59:10;43.17;;;32.78;;
53751;SDS011;41095;53.090;6.692;2023-05-07T04:01:36;46.63;;;31.75;;
53751;SDS011;41095;53.090;6.692;2023-05-07T04:04:02;41.42;;;29.63;;
53751;SDS011;41095;53.090;6.692;2023-05-07T04:06:29;46.35;;;31.48;;
53751;SDS011;41095;53.090;6.692;2023-05-07T04:08:55;43.33;;;31.50;;
53751;SDS011;41095;53.090;6.692;2023-05-07T04:11:21;39.35;;;29.60;;
53751;SDS011;41095;53.090;6.692;2023-05-07T04:13:47;44.83;;;32.05;;
53751;SDS011;41095;53.090;6.692;2023-05-07T04:16:12;41.45;;;31.55;;
53751;SDS011;41095;53.090;6.692;2023-05-07T04:18:38;41.13;;;29.77;;
53751;SDS011;41095;53.090;6.692;2023-05-07T04:21:04;40.05;;;30.27;;
53751;SDS011;41095;53.090;6.692;2023-05-07T04:23:30;43.63;;;29.73;;
53751;SDS011;41095;53.090;6.692;2023-05-07T04:25:56;42.10;;;28.70;;
53751;SDS011;41095;53.090;6.692;2023-05-07T04:28:22;38.17;;;29.17;;
53751;SDS011;41095;53.090;6.692;2023-05-07T04:30:48;37.10;;;28.83;;
53751;SDS011;41095;53.090;6.692;2023-05-07T04:33:14;36.47;;;29.20;;
53751;SDS011;41095;53.090;6.692;2023-05-07T04:35:43;41.55;;;29.00;;
53751;SDS011;41095;53.090;6.692;2023-05-07T04:38:09;36.60;;;27.13;;
53751;SDS011;41095;53.090;6.692;2023-05-07T04:40:37;41.15;;;29.80;;
53751;SDS011;41095;53.090;6.692;2023-05-07T04:43:04;39.08;;;29.05;;
53751;SDS011;41095;53.090;6.692;2023-05-07T04:45:29;43.25;;;28.83;;
53751;SDS011;41095;53.090;6.692;2023-05-07T04:47:55;38.88;;;28.98;;
53751;SDS011;41095;53.090;6.692;2023-05-07T04:50:21;39.03;;;27.45;;
53751;SDS011;41095;53.090;6.692;2023-05-07T04:52:49;42.83;;;28.90;;
53751;SDS011;41095;53.090;6.692;2023-05-07T04:55:15;34.55;;;27.58;;
53751;SDS011;41095;53.090;6.692;2023-05-07T04:57:40;34.42;;;26.67;;
53751;SDS011;41095;53.090;6.692;2023-05-07T05:00:07;34.72;;;26.45;;
53751;SDS011;41095;53.090;6.692;2023-05-07T05:02:39;39.50;;;28.80;;
53751;SDS011;41095;53.090;6.692;2023-05-07T05:05:05;34.70;;;26.95;;
53751;SDS011;41095;53.090;6.692;2023-05-07T05:07:32;34.92;;;27.83;;
53751;SDS011;41095;53.090;6.692;2023-05-07T05:09:57;36.15;;;28.40;;
53751;SDS011;41095;53.090;6.692;2023-05-07T05:12:23;33.30;;;26.00;;
53751;SDS011;41095;53.090;6.692;2023-05-07T05:14:49;33.83;;;27.67;;
53751;SDS011;41095;53.090;6.692;2023-05-07T05:17:15;33.78;;;27.40;;
53751;SDS011;41095;53.090;6.692;2023-05-07T05:19:41;37.83;;;27.88;;
53751;SDS011;41095;53.090;6.692;2023-05-07T05:22:06;38.92;;;27.08;;
53751;SDS011;41095;53.090;6.692;2023-05-07T05:24:32;33.70;;;27.30;;
53751;SDS011;41095;53.090;6.692;2023-05-07T05:26:58;32.22;;;25.10;;
53751;SDS011;41095;53.090;6.692;2023-05-07T05:29:26;33.08;;;26.50;;
53751;SDS011;41095;53.090;6.692;2023-05-07T05:31:52;40.33;;;26.75;;
53751;SDS011;41095;53.090;6.692;2023-05-07T05:34:17;34.30;;;26.75;;
53751;SDS011;41095;53.090;6.692;2023-05-07T05:36:44;36.50;;;26.05;;
53751;SDS011;41095;53.090;6.692;2023-05-07T05:39:10;36.05;;;25.80;;
53751;SDS011;41095;53.090;6.692;2023-05-07T05:41:36;33.85;;;25.45;;
53751;SDS011;41095;53.090;6.692;2023-05-07T05:44:02;29.27;;;23.98;;
53751;SDS011;41095;53.090;6.692;2023-05-07T05:46:27;35.17;;;26.90;;
53751;SDS011;41095;53.090;6.692;2023-05-07T05:48:53;32.70;;;25.23;;
53751;SDS011;41095;53.090;6.692;2023-05-07T05:51:20;31.65;;;24.48;;
53751;SDS011;41095;53.090;6.692;2023-05-07T05:53:46;30.92;;;24.67;;
53751;SDS011;41095;53.090;6.692;2023-05-07T05:56:12;32.30;;;24.30;;
53751;SDS011;41095;53.090;6.692;2023-05-07T05:58:37;33.92;;;24.52;;
53751;SDS011;41095;53.090;6.692;2023-05-07T06:01:03;33.75;;;23.98;;
53751;SDS011;41095;53.090;6.692;2023-05-07T06:03:30;30.45;;;23.75;;
53751;SDS011;41095;53.090;6.692;2023-05-07T06:05:57;32.97;;;24.33;;
53751;SDS011;41095;53.090;6.692;2023-05-07T06:08:23;31.13;;;25.58;;
53751;SDS011;41095;53.090;6.692;2023-05-07T06:10:49;31.80;;;22.60;;
53751;SDS011;41095;53.090;6.692;2023-05-07T06:13:15;27.77;;;22.70;;
53751;SDS011;41095;53.090;6.692;2023-05-07T06:15:40;28.50;;;21.48;;
53751;SDS011;41095;53.090;6.692;2023-05-07T06:18:06;30.83;;;23.27;;
53751;SDS011;41095;53.090;6.692;2023-05-07T06:20:32;27.85;;;23.38;;
53751;SDS011;41095;53.090;6.692;2023-05-07T06:22:57;33.13;;;24.75;;
53751;SDS011;41095;53.090;6.692;2023-05-07T06:25:23;31.42;;;23.40;;
53751;SDS011;41095;53.090;6.692;2023-05-07T06:27:49;30.60;;;22.65;;
53751;SDS011;41095;53.090;6.692;2023-05-07T06:30:14;28.77;;;22.90;;
53751;SDS011;41095;53.090;6.692;2023-05-07T06:32:40;31.08;;;22.30;;
53751;SDS011;41095;53.090;6.692;2023-05-07T06:35:06;29.98;;;23.52;;
53751;SDS011;41095;53.090;6.692;2023-05-07T06:37:32;29.63;;;23.00;;
53751;SDS011;41095;53.090;6.692;2023-05-07T06:39:58;29.50;;;22.95;;
53751;SDS011;41095;53.090;6.692;2023-05-07T06:42:23;31.63;;;23.50;;
53751;SDS011;41095;53.090;6.692;2023-05-07T06:44:49;28.48;;;22.20;;
53751;SDS011;41095;53.090;6.692;2023-05-07T06:47:15;30.17;;;23.35;;
53751;SDS011;41095;53.090;6.692;2023-05-07T06:49:41;32.42;;;24.88;;
53751;SDS011;41095;53.090;6.692;2023-05-07T06:52:06;31.88;;;24.08;;
53751;SDS011;41095;53.090;6.692;2023-05-07T06:54:32;32.28;;;24.05;;
53751;SDS011;41095;53.090;6.692;2023-05-07T06:56:58;31.02;;;23.55;;
53751;SDS011;41095;53.090;6.692;2023-05-07T06:59:23;32.72;;;22.17;;
53751;SDS011;41095;53.090;6.692;2023-05-07T07:01:49;30.98;;;23.17;;
53751;SDS011;41095;53.090;6.692;2023-05-07T07:04:15;29.20;;;21.05;;
53751;SDS011;41095;53.090;6.692;2023-05-07T07:06:41;28.83;;;21.77;;
53751;SDS011;41095;53.090;6.692;2023-05-07T07:09:06;29.35;;;21.17;;
53751;SDS011;41095;53.090;6.692;2023-05-07T07:11:32;29.60;;;21.70;;
53751;SDS011;41095;53.090;6.692;2023-05-07T07:13:58;30.95;;;24.42;;
53751;SDS011;41095;53.090;6.692;2023-05-07T07:16:24;32.30;;;22.75;;
53751;SDS011;41095;53.090;6.692;2023-05-07T07:18:50;30.90;;;24.00;;
53751;SDS011;41095;53.090;6.692;2023-05-07T07:21:16;32.65;;;24.05;;
53751;SDS011;41095;53.090;6.692;2023-05-07T07:23:41;27.73;;;21.52;;
53751;SDS011;41095;53.090;6.692;2023-05-07T07:26:07;31.17;;;22.40;;
53751;SDS011;41095;53.090;6.692;2023-05-07T07:28:33;32.88;;;23.33;;
53751;SDS011;41095;53.090;6.692;2023-05-07T07:30:58;32.10;;;24.20;;
53751;SDS011;41095;53.090;6.692;2023-05-07T07:33:24;32.50;;;23.25;;
53751;SDS011;41095;53.090;6.692;2023-05-07T07:35:50;35.35;;;22.45;;
53751;SDS011;41095;53.090;6.692;2023-05-07T07:38:15;32.70;;;23.55;;
53751;SDS011;41095;53.090;6.692;2023-05-07T07:40:41;30.10;;;23.05;;
53751;SDS011;41095;53.090;6.692;2023-05-07T07:43:08;33.72;;;23.00;;
53751;SDS011;41095;53.090;6.692;2023-05-07T07:45:34;31.23;;;22.20;;
53751;SDS011;41095;53.090;6.692;2023-05-07T07:48:00;25.58;;;20.08;;
53751;SDS011;41095;53.090;6.692;2023-05-07T07:50:26;30.70;;;21.80;;
53751;SDS011;41095;53.090;6.692;2023-05-07T07:52:52;35.75;;;24.48;;
53751;SDS011;41095;53.090;6.692;2023-05-07T07:55:19;30.02;;;21.58;;
53751;SDS011;41095;53.090;6.692;2023-05-07T07:57:47;33.67;;;23.55;;
53751;SDS011;41095;53.090;6.692;2023-05-07T08:00:14;29.02;;;22.30;;
53751;SDS011;41095;53.090;6.692;2023-05-07T08:02:40;33.53;;;22.50;;
53751;SDS011;41095;53.090;6.692;2023-05-07T08:05:06;28.08;;;21.40;;
53751;SDS011;41095;53.090;6.692;2023-05-07T08:07:32;32.72;;;23.60;;
53751;SDS011;41095;53.090;6.692;2023-05-07T08:09:58;34.28;;;22.10;;
53751;SDS011;41095;53.090;6.692;2023-05-07T08:12:23;29.48;;;20.40;;
53751;SDS011;41095;53.090;6.692;2023-05-07T08:14:49;31.73;;;22.98;;
53751;SDS011;41095;53.090;6.692;2023-05-07T08:17:15;31.20;;;23.08;;
53751;SDS011;41095;53.090;6.692;2023-05-07T08:19:41;26.05;;;19.52;;
53751;SDS011;41095;53.090;6.692;2023-05-07T08:22:08;25.73;;;19.25;;
53751;SDS011;41095;53.090;6.692;2023-05-07T08:24:35;31.40;;;22.35;;
53751;SDS011;41095;53.090;6.692;2023-05-07T08:27:01;28.60;;;20.52;;
53751;SDS011;41095;53.090;6.692;2023-05-07T08:29:27;28.75;;;20.73;;
53751;SDS011;41095;53.090;6.692;2023-05-07T08:31:52;27.10;;;20.40;;
53751;SDS011;41095;53.090;6.692;2023-05-07T08:34:19;27.35;;;20.85;;
53751;SDS011;41095;53.090;6.692;2023-05-07T08:36:44;25.63;;;20.00;;
53751;SDS011;41095;53.090;6.692;2023-05-07T08:39:13;29.70;;;21.50;;
53751;SDS011;41095;53.090;6.692;2023-05-07T08:41:40;25.75;;;20.58;;
53751;SDS011;41095;53.090;6.692;2023-05-07T08:44:11;27.30;;;19.67;;
53751;SDS011;41095;53.090;6.692;2023-05-07T08:46:38;29.33;;;21.45;;
53751;SDS011;41095;53.090;6.692;2023-05-07T08:49:06;25.08;;;19.38;;
53751;SDS011;41095;53.090;6.692;2023-05-07T08:51:33;27.30;;;19.48;;
53751;SDS011;41095;53.090;6.692;2023-05-07T08:54:00;24.88;;;19.33;;
53751;SDS011;41095;53.090;6.692;2023-05-07T08:56:26;28.70;;;19.13;;
53751;SDS011;41095;53.090;6.692;2023-05-07T08:58:52;26.00;;;18.58;;
53751;SDS011;41095;53.090;6.692;2023-05-07T09:01:21;29.00;;;20.52;;
53751;SDS011;41095;53.090;6.692;2023-05-07T09:03:47;27.90;;;18.58;;
53751;SDS011;41095;53.090;6.692;2023-05-07T09:06:15;25.85;;;18.70;;
53751;SDS011;41095;53.090;6.692;2023-05-07T09:08:43;26.13;;;19.05;;
53751;SDS011;41095;53.090;6.692;2023-05-07T09:11:14;22.58;;;16.90;;
53751;SDS011;41095;53.090;6.692;2023-05-07T09:13:40;23.58;;;18.63;;
53751;SDS011;41095;53.090;6.692;2023-05-07T09:16:09;23.25;;;16.95;;
53751;SDS011;41095;53.090;6.692;2023-05-07T09:18:40;29.98;;;17.17;;
53751;SDS011;41095;53.090;6.692;2023-05-07T09:21:09;24.40;;;16.17;;
53751;SDS011;41095;53.090;6.692;2023-05-07T09:23:35;29.48;;;18.55;;
53751;SDS011;41095;53.090;6.692;2023-05-07T09:26:01;23.83;;;16.50;;
53751;SDS011;41095;53.090;6.692;2023-05-07T09:28:27;23.23;;;17.60;;
53751;SDS011;41095;53.090;6.692;2023-05-07T09:30:52;22.05;;;17.27;;
53751;SDS011;41095;53.090;6.692;2023-05-07T09:33:18;23.65;;;16.23;;
53751;SDS011;41095;53.090;6.692;2023-05-07T09:35:44;24.30;;;16.30;;
53751;SDS011;41095;53.090;6.692;2023-05-07T09:38:09;22.63;;;16.67;;
53751;SDS011;41095;53.090;6.692;2023-05-07T09:40:35;28.38;;;17.42;;
53751;SDS011;41095;53.090;6.692;2023-05-07T09:43:10;24.30;;;17.02;;
53751;SDS011;41095;53.090;6.692;2023-05-07T09:45:37;20.00;;;16.23;;
53751;SDS011;41095;53.090;6.692;2023-05-07T09:48:04;20.67;;;15.13;;
53751;SDS011;41095;53.090;6.692;2023-05-07T09:50:44;23.50;;;15.98;;
53751;SDS011;41095;53.090;6.692;2023-05-07T09:55:42;18.40;;;14.63;;
53751;SDS011;41095;53.090;6.692;2023-05-07T09:58:08;23.45;;;16.15;;
53751;SDS011;41095;53.090;6.692;2023-05-07T10:00:36;19.73;;;15.13;;
53751;SDS011;41095;53.090;6.692;2023-05-07T10:03:05;23.00;;;15.75;;
53751;SDS011;41095;53.090;6.692;2023-05-07T10:05:32;20.52;;;16.05;;
53751;SDS011;41095;53.090;6.692;2023-05-07T10:07:59;21.85;;;14.27;;
53751;SDS011;41095;53.090;6.692;2023-05-07T10:10:26;20.67;;;14.07;;
53751;SDS011;41095;53.090;6.692;2023-05-07T10:12:53;19.27;;;14.02;;
53751;SDS011;41095;53.090;6.692;2023-05-07T10:15:19;20.70;;;13.55;;
53751;SDS011;41095;53.090;6.692;2023-05-07T10:17:46;21.40;;;14.43;;
53751;SDS011;41095;53.090;6.692;2023-05-07T10:20:13;19.75;;;14.02;;
53751;SDS011;41095;53.090;6.692;2023-05-07T10:22:40;19.83;;;14.30;;
53751;SDS011;41095;53.090;6.692;2023-05-07T10:25:41;19.40;;;14.05;;
53751;SDS011;41095;53.090;6.692;2023-05-07T10:28:01;15.75;;;12.35;;
53751;SDS011;41095;53.090;6.692;2023-05-07T10:33:06;20.15;;;14.23;;
53751;SDS011;41095;53.090;6.692;2023-05-07T10:35:41;15.13;;;13.52;;
53751;SDS011;41095;53.090;6.692;2023-05-07T10:38:09;20.48;;;15.13;;
53751;SDS011;41095;53.090;6.692;2023-05-07T10:40:35;15.80;;;13.80;;
53751;SDS011;41095;53.090;6.692;2023-05-07T10:43:02;19.83;;;15.25;;
53751;SDS011;41095;53.090;6.692;2023-05-07T10:45:30;15.30;;;12.70;;
53751;SDS011;41095;53.090;6.692;2023-05-07T10:48:06;18.13;;;13.43;;
53751;SDS011;41095;53.090;6.692;2023-05-07T10:50:37;16.73;;;12.65;;
53751;SDS011;41095;53.090;6.692;2023-05-07T10:55:43;17.38;;;12.95;;
53751;SDS011;41095;53.090;6.692;2023-05-07T11:00:50;15.55;;;13.02;;
53751;SDS011;41095;53.090;6.692;2023-05-07T11:03:17;20.10;;;14.35;;
53751;SDS011;41095;53.090;6.692;2023-05-07T11:05:43;17.30;;;14.05;;
53751;SDS011;41095;53.090;6.692;2023-05-07T11:08:09;18.25;;;14.00;;
53751;SDS011;41095;53.090;6.692;2023-05-07T11:18:50;18.48;;;13.52;;
53751;SDS011;41095;53.090;6.692;2023-05-07T11:21:37;18.65;;;14.25;;
53751;SDS011;41095;53.090;6.692;2023-05-07T11:24:04;14.55;;;12.88;;
53751;SDS011;41095;53.090;6.692;2023-05-07T11:27:06;17.98;;;13.07;;
53751;SDS011;41095;53.090;6.692;2023-05-07T11:29:25;18.02;;;13.20;;
53751;SDS011;41095;53.090;6.692;2023-05-07T11:31:53;17.48;;;13.68;;
53751;SDS011;41095;53.090;6.692;2023-05-07T11:34:23;16.52;;;13.00;;
53751;SDS011;41095;53.090;6.692;2023-05-07T11:36:50;16.83;;;13.63;;
53751;SDS011;41095;53.090;6.692;2023-05-07T11:39:26;19.30;;;13.50;;
53751;SDS011;41095;53.090;6.692;2023-05-07T11:41:53;16.05;;;13.48;;
53751;SDS011;41095;53.090;6.692;2023-05-07T11:44:19;16.00;;;12.57;;
53751;SDS011;41095;53.090;6.692;2023-05-07T11:46:45;17.02;;;13.40;;
53751;SDS011;41095;53.090;6.692;2023-05-07T11:49:11;18.90;;;15.05;;
53751;SDS011;41095;53.090;6.692;2023-05-07T11:51:37;15.27;;;12.48;;
53751;SDS011;41095;53.090;6.692;2023-05-07T11:54:04;16.80;;;13.35;;
53751;SDS011;41095;53.090;6.692;2023-05-07T11:56:34;16.98;;;13.75;;
53751;SDS011;41095;53.090;6.692;2023-05-07T11:59:00;17.35;;;13.77;;
53751;SDS011;41095;53.090;6.692;2023-05-07T12:01:26;17.75;;;14.43;;
53751;SDS011;41095;53.090;6.692;2023-05-07T12:03:52;21.98;;;14.38;;
53751;SDS011;41095;53.090;6.692;2023-05-07T12:06:17;14.65;;;12.85;;
53751;SDS011;41095;53.090;6.692;2023-05-07T12:08:44;15.70;;;12.13;;
53751;SDS011;41095;53.090;6.692;2023-05-07T12:11:21;18.17;;;12.50;;
53751;SDS011;41095;53.090;6.692;2023-05-07T12:13:50;19.65;;;14.73;;
53751;SDS011;41095;53.090;6.692;2023-05-07T12:16:16;16.13;;;12.98;;
53751;SDS011;41095;53.090;6.692;2023-05-07T12:18:43;16.63;;;12.07;;
53751;SDS011;41095;53.090;6.692;2023-05-07T12:21:09;19.60;;;14.23;;
53751;SDS011;41095;53.090;6.692;2023-05-07T12:23:36;16.42;;;13.65;;
53751;SDS011;41095;53.090;6.692;2023-05-07T12:26:03;17.90;;;13.90;;
53751;SDS011;41095;53.090;6.692;2023-05-07T12:28:29;17.00;;;13.73;;
53751;SDS011;41095;53.090;6.692;2023-05-07T12:30:56;17.10;;;14.00;;
53751;SDS011;41095;53.090;6.692;2023-05-07T12:33:25;18.95;;;14.43;;
53751;SDS011;41095;53.090;6.692;2023-05-07T12:35:53;17.83;;;13.43;;
53751;SDS011;41095;53.090;6.692;2023-05-07T12:38:20;16.92;;;13.95;;
53751;SDS011;41095;53.090;6.692;2023-05-07T12:40:47;17.67;;;13.48;;
53751;SDS011;41095;53.090;6.692;2023-05-07T12:45:52;17.00;;;14.13;;
53751;SDS011;41095;53.090;6.692;2023-05-07T12:48:20;16.45;;;13.65;;
53751;SDS011;41095;53.090;6.692;2023-05-07T12:50:49;17.63;;;13.27;;
53751;SDS011;41095;53.090;6.692;2023-05-07T12:53:15;17.58;;;15.65;;
53751;SDS011;41095;53.090;6.692;2023-05-07T12:55:44;15.95;;;14.15;;
53751;SDS011;41095;53.090;6.692;2023-05-07T12:58:19;15.50;;;13.43;;
53751;SDS011;41095;53.090;6.692;2023-05-07T13:00:49;15.68;;;12.27;;
53751;SDS011;41095;53.090;6.692;2023-05-07T13:03:22;18.45;;;14.60;;
53751;SDS011;41095;53.090;6.692;2023-05-07T13:05:49;17.40;;;14.70;;
53751;SDS011;41095;53.090;6.692;2023-05-07T13:10:51;17.10;;;12.98;;
53751;SDS011;41095;53.090;6.692;2023-05-07T13:13:18;16.67;;;12.95;;
53751;SDS011;41095;53.090;6.692;2023-05-07T13:15:45;17.38;;;12.85;;
53751;SDS011;41095;53.090;6.692;2023-05-07T13:18:11;17.40;;;12.60;;
53751;SDS011;41095;53.090;6.692;2023-05-07T13:20:36;17.23;;;13.50;;
53751;SDS011;41095;53.090;6.692;2023-05-07T13:23:02;13.57;;;11.50;;
53751;SDS011;41095;53.090;6.692;2023-05-07T13:25:29;14.90;;;13.45;;
53751;SDS011;41095;53.090;6.692;2023-05-07T13:27:59;15.85;;;13.55;;
53751;SDS011;41095;53.090;6.692;2023-05-07T13:30:25;16.58;;;13.68;;
53751;SDS011;41095;53.090;6.692;2023-05-07T13:32:51;15.07;;;13.13;;
53751;SDS011;41095;53.090;6.692;2023-05-07T13:35:20;16.73;;;13.63;;
53751;SDS011;41095;53.090;6.692;2023-05-07T13:37:46;15.35;;;13.23;;
53751;SDS011;41095;53.090;6.692;2023-05-07T13:40:13;19.05;;;12.93;;
53751;SDS011;41095;53.090;6.692;2023-05-07T13:42:38;16.38;;;13.00;;
53751;SDS011;41095;53.090;6.692;2023-05-07T13:45:04;16.33;;;13.20;;
53751;SDS011;41095;53.090;6.692;2023-05-07T13:47:31;14.50;;;12.25;;
53751;SDS011;41095;53.090;6.692;2023-05-07T13:49:56;15.05;;;13.15;;
53751;SDS011;41095;53.090;6.692;2023-05-07T13:52:22;15.20;;;11.93;;
53751;SDS011;41095;53.090;6.692;2023-05-07T13:54:48;13.88;;;12.38;;
53751;SDS011;41095;53.090;6.692;2023-05-07T13:57:13;14.88;;;12.60;;
53751;SDS011;41095;53.090;6.692;2023-05-07T13:59:40;14.52;;;12.05;;
53751;SDS011;41095;53.090;6.692;2023-05-07T14:02:06;15.15;;;13.13;;
53751;SDS011;41095;53.090;6.692;2023-05-07T14:04:31;14.88;;;12.32;;
53751;SDS011;41095;53.090;6.692;2023-05-07T14:06:57;14.73;;;12.75;;
53751;SDS011;41095;53.090;6.692;2023-05-07T14:09:23;15.35;;;12.65;;
53751;SDS011;41095;53.090;6.692;2023-05-07T14:11:48;15.13;;;12.02;;
53751;SDS011;41095;53.090;6.692;2023-05-07T14:14:16;14.43;;;12.20;;
53751;SDS011;41095;53.090;6.692;2023-05-07T14:16:43;14.70;;;12.90;;
53751;SDS011;41095;53.090;6.692;2023-05-07T14:19:09;15.55;;;13.80;;
53751;SDS011;41095;53.090;6.692;2023-05-07T14:21:35;13.35;;;11.95;;
53751;SDS011;41095;53.090;6.692;2023-05-07T14:24:00;14.35;;;12.82;;
53751;SDS011;41095;53.090;6.692;2023-05-07T14:26:26;15.20;;;12.98;;
53751;SDS011;41095;53.090;6.692;2023-05-07T14:28:52;14.02;;;12.63;;
53751;SDS011;41095;53.090;6.692;2023-05-07T14:31:20;15.57;;;13.43;;
53751;SDS011;41095;53.090;6.692;2023-05-07T14:33:46;16.67;;;12.30;;
53751;SDS011;41095;53.090;6.692;2023-05-07T14:36:11;14.43;;;12.23;;
53751;SDS011;41095;53.090;6.692;2023-05-07T14:38:37;15.13;;;11.77;;
53751;SDS011;41095;53.090;6.692;2023-05-07T14:41:03;13.18;;;11.88;;